Washington, Virginia
Current Conditions -  °F | °C
As of 11:15 PM on Sunday 23 Nov 2014 (Local Time) from KFRR Reporting Station
Overcast Overcast  
Wind Chill: 52°   Ceiling: 2100
Heat Index: 52°   Visibility: 7mi
Dew Point: 50°   Wind: 7mph
Humidity: 94%   Direction: 120°ESE
Pressure: 29.75"   Gusts: NA
Location:  38.71°N, 78.16°W
Report Text: KFRR 240415Z AUTO 12006KT 7SM BKN021 OVC026 11/10 A2975 RMK AO1 P0001
Loading
Personal Weather Stations






























Interactive Weather Map New forecast layout! Learn more

10-Day Weather Forecast

Advertisements
Track Severe Weather on mobile